Time;durP1;ratioP1;P1;durP2;ratioP2;P2;SDS_P1;SDS_P2;PMS_P1;PMS_P2;Temp;Humidity;BMP_temperature;BMP_pressure;BME280_temperature;BME280_humidity;BME280_pressure;Samples;Min_cycle;Max_cycle;Signal;HPM_P1;HPM_P2
2023/06/20 00:00:15;;;;;;;12.48;7.38;;;;;;;17.11;93.09;94983.91;5014776;28;20560;-82
2023/06/20 00:02:40;;;;;;;10.20;7.10;;;;;;;17.14;93.38;94980.72;5014728;28;20176;-82
2023/06/20 00:05:06;;;;;;;11.00;7.70;;;;;;;17.01;93.13;94955.31;5014819;28;20781;-82
2023/06/20 00:07:32;;;;;;;16.92;9.55;;;;;;;17.16;92.64;94984.75;5015626;28;20157;-82
2023/06/20 00:09:58;;;;;;;14.32;9.02;;;;;;;17.11;92.06;94968.75;5015766;28;20152;-82
2023/06/20 00:12:23;;;;;;;14.88;8.77;;;;;;;17.13;91.74;94989.75;5015357;28;20559;-81
2023/06/20 00:14:48;;;;;;;14.30;9.10;;;;;;;16.92;91.74;94962.13;5015231;28;20199;-81
2023/06/20 00:17:14;;;;;;;9.57;6.70;;;;;;;17.00;91.78;94969.69;5014372;28;20238;-82
2023/06/20 00:19:40;;;;;;;14.35;7.70;;;;;;;16.73;91.28;94932.38;5013120;28;20185;-81
2023/06/20 00:22:05;;;;;;;10.35;6.63;;;;;;;16.65;91.38;94918.72;5014534;28;20213;-81
2023/06/20 00:24:32;;;;;;;17.88;7.32;;;;;;;16.85;91.43;94956.19;5014159;28;20629;-81
2023/06/20 00:27:02;;;;;;;16.48;6.75;;;;;;;16.87;91.52;94962.84;5014358;28;20545;-81
2023/06/20 00:29:28;;;;;;;12.60;7.47;;;;;;;16.94;91.78;94979.47;5014386;28;20168;-82
2023/06/20 00:31:53;;;;;;;11.48;6.80;;;;;;;16.86;91.35;94968.44;5014201;28;20527;-82
2023/06/20 00:34:19;;;;;;;11.18;6.80;;;;;;;16.75;91.50;94962.19;5015181;28;20153;-82
2023/06/20 00:36:44;;;;;;;10.00;7.68;;;;;;;16.62;91.82;94941.25;5014737;28;20176;-82
2023/06/20 00:39:10;;;;;;;19.10;6.57;;;;;;;16.50;91.90;94937.91;5013639;28;20246;-82
2023/06/20 00:41:36;;;;;;;10.77;7.18;;;;;;;16.74;92.37;94979.19;5014000;28;20172;-82
2023/06/20 00:44:03;;;;;;;11.00;6.95;;;;;;;16.46;92.17;94934.91;5014066;28;20190;-82
2023/06/20 00:46:31;;;;;;;11.68;8.30;;;;;;;16.59;92.61;94961.16;5012619;28;20183;-82
2023/06/20 00:48:57;;;;;;;9.95;6.97;;;;;;;16.68;92.88;94971.41;5013731;28;20255;-82
2023/06/20 00:51:28;;;;;;;10.82;6.93;;;;;;;16.51;92.99;94950.13;5013582;28;20220;-81
2023/06/20 00:53:56;;;;;;;13.75;7.78;;;;;;;16.55;93.27;94964.53;5013910;28;20191;-82
2023/06/20 00:56:24;;;;;;;11.85;7.07;;;;;;;16.56;93.24;94960.81;5012434;28;20730;-82
2023/06/20 00:58:50;;;;;;;13.32;7.03;;;;;;;16.49;93.35;94953.03;5013539;28;20212;-82
2023/06/20 01:01:16;;;;;;;10.70;6.80;;;;;;;16.30;93.16;94917.16;5011750;28;20169;-82
2023/06/20 01:03:43;;;;;;;9.82;6.97;;;;;;;16.26;93.14;94920.56;5013927;28;20272;-82
2023/06/20 01:06:21;;;;;;;11.25;6.80;;;;;;;16.49;93.27;94968.19;5014387;28;20239;-82
2023/06/20 01:09:08;;;;;;;11.60;6.50;;;;;;;16.44;93.48;94966.22;5014737;28;20160;-82
2023/06/20 01:11:52;;;;;;;9.68;6.07;;;;;;;16.32;93.46;94952.25;5014388;28;20156;-82
2023/06/20 01:14:49;;;;;;;8.45;6.85;;;;;;;16.36;93.61;94957.88;5014293;28;20677;-81
2023/06/20 01:17:27;;;;;;;12.00;6.60;;;;;;;16.41;94.00;94969.41;4998564;28;20184;-81
2023/06/20 01:19:53;;;;;;;9.55;6.38;;;;;;;16.41;93.84;94972.06;5013838;28;20196;-81
2023/06/20 01:22:44;;;;;;;8.10;6.55;;;;;;;16.37;93.72;94965.59;5014191;28;20295;-81
2023/06/20 01:25:18;;;;;;;9.68;6.85;;;;;;;16.35;93.84;94967.69;5011910;28;20173;-81
2023/06/20 01:27:56;;;;;;;9.13;6.05;;;;;;;16.25;93.99;94959.59;5012553;28;20207;-81
2023/06/20 01:30:26;;;;;;;9.88;6.15;;;;;;;16.18;94.20;94951.78;5013204;28;20164;-81
2023/06/20 01:32:59;;;;;;;9.43;6.03;;;;;;;16.21;94.44;94959.28;5012739;28;20674;-81
2023/06/20 01:35:49;;;;;;;16.25;7.22;;;;;;;16.23;94.36;94970.47;5012764;28;20173;-82
2023/06/20 01:38:17;;;;;;;9.93;7.40;;;;;;;16.10;94.55;94962.81;5013025;28;20469;-81
2023/06/20 01:40:47;;;;;;;9.27;7.25;;;;;;;16.03;94.41;94959.50;5013262;28;20642;-81
2023/06/20 01:43:15;;;;;;;9.27;7.18;;;;;;;16.07;94.41;94960.66;5012504;28;21907;-81
2023/06/20 01:45:43;;;;;;;12.75;6.35;;;;;;;16.17;94.42;94978.59;5010139;28;20207;-81
2023/06/20 01:48:11;;;;;;;8.35;6.38;;;;;;;16.13;94.35;94974.81;5012770;28;20184;-81
2023/06/20 01:50:38;;;;;;;10.88;6.32;;;;;;;16.16;94.15;94982.31;5011593;28;20168;-81
2023/06/20 01:53:05;;;;;;;8.75;5.40;;;;;;;16.12;94.07;94986.47;5011244;28;20311;-81
2023/06/20 01:55:33;;;;;;;7.90;6.25;;;;;;;16.10;94.08;94984.06;5013278;28;20188;-81
2023/06/20 01:58:00;;;;;;;10.43;5.93;;;;;;;16.07;93.96;94984.56;5013655;28;20187;-81
2023/06/20 02:00:29;;;;;;;11.68;6.43;;;;;;;16.05;94.01;94975.22;5013096;28;20650;-81
2023/06/20 02:02:59;;;;;;;9.10;5.82;;;;;;;16.04;93.78;94981.56;5013903;28;20161;-80
2023/06/20 02:05:27;;;;;;;8.80;5.97;;;;;;;16.06;93.71;94985.59;5013852;28;20172;-81
2023/06/20 02:07:55;;;;;;;10.30;5.85;;;;;;;15.98;93.54;94977.22;5013102;28;20311;-81
2023/06/20 02:10:22;;;;;;;9.98;6.57;;;;;;;16.01;93.61;94979.38;5012482;28;20192;-81
2023/06/20 02:12:51;;;;;;;12.38;6.20;;;;;;;15.97;93.86;94983.59;5010075;28;20177;-81
2023/06/20 02:15:18;;;;;;;10.32;5.85;;;;;;;15.94;94.13;94981.41;5012409;28;20192;-80
2023/06/20 02:17:45;;;;;;;11.82;6.57;;;;;;;15.80;93.88;94965.78;5012312;28;20180;-81
2023/06/20 02:20:12;;;;;;;11.95;6.55;;;;;;;15.89;94.28;94982.13;5012096;28;20324;-81
2023/06/20 02:22:41;;;;;;;10.10;6.88;;;;;;;15.92;94.72;94983.47;5012560;28;20559;-81
2023/06/20 02:25:11;;;;;;;9.40;5.95;;;;;;;15.91;94.31;94982.72;5012855;28;20540;-81
2023/06/20 02:27:40;;;;;;;11.38;6.93;;;;;;;15.80;94.22;94965.00;5013112;28;20167;-81
2023/06/20 02:30:10;;;;;;;8.15;6.22;;;;;;;15.69;94.58;94957.88;5011976;28;20673;-81
2023/06/20 02:32:36;;;;;;;8.98;6.43;;;;;;;15.82;94.34;94979.66;5012011;28;20222;-81
2023/06/20 02:35:04;;;;;;;9.93;6.55;;;;;;;15.79;94.74;94974.00;5011766;28;20197;-81
2023/06/20 02:37:33;;;;;;;10.88;6.60;;;;;;;15.76;94.77;94980.56;5012013;28;20222;-81
2023/06/20 02:39:58;;;;;;;9.25;5.90;;;;;;;15.51;94.74;94950.09;5011731;28;20254;-81
2023/06/20 02:42:24;;;;;;;8.52;6.18;;;;;;;15.58;95.18;94966.72;5012333;28;20173;-81
2023/06/20 02:44:49;;;;;;;9.95;6.30;;;;;;;15.43;95.42;94941.50;5012763;28;20164;-81
2023/06/20 02:47:42;;;;;;;14.60;6.68;;;;;;;15.74;95.50;94997.81;5013133;28;20211;-81
2023/06/20 02:50:16;;;;;;;15.15;6.22;;;;;;;15.75;94.89;95010.81;5012556;28;20645;-81
2023/06/20 02:52:52;;;;;;;9.65;6.90;;;;;;;15.59;94.69;94981.59;5011306;28;20303;-81
2023/06/20 02:55:29;;;;;;;11.13;6.50;;;;;;;15.65;94.77;95010.66;5011189;28;20188;-81
2023/06/20 02:58:00;;;;;;;10.50;6.80;;;;;;;15.51;95.03;94990.72;5026298;28;20176;-81
2023/06/20 03:00:27;;;;;;;9.70;6.38;;;;;;;15.47;94.80;94997.56;5011498;28;20187;-81
2023/06/20 03:03:07;;;;;;;12.35;6.82;;;;;;;15.43;95.42;94993.75;5011513;28;20233;-81
2023/06/20 03:05:37;;;;;;;20.08;6.88;;;;;;;15.61;95.27;95027.28;5011269;28;20172;-81
2023/06/20 03:08:04;;;;;;;8.70;5.60;;;;;;;15.50;95.16;95031.56;5011424;28;20169;-81
2023/06/20 03:10:31;;;;;;;9.55;6.75;;;;;;;15.23;95.95;94986.22;5012577;28;20252;-81
2023/06/20 03:12:58;;;;;;;11.70;6.90;;;;;;;15.57;95.82;95034.91;5011576;28;20180;-81
2023/06/20 03:15:23;;;;;;;9.40;6.97;;;;;;;15.63;95.81;95033.97;5011230;28;20176;-81
2023/06/20 03:17:49;;;;;;;7.90;5.72;;;;;;;15.50;95.83;95005.03;5011101;28;20238;-81
2023/06/20 03:20:14;;;;;;;8.98;6.53;;;;;;;15.60;95.15;95034.44;5011240;28;20183;-81
2023/06/20 03:22:40;;;;;;;15.50;7.60;;;;;;;15.54;95.80;95038.06;5012709;28;20263;-81
2023/06/20 03:25:05;;;;;;;10.65;7.22;;;;;;;15.60;96.77;95041.59;5014654;28;20601;-80
2023/06/20 03:27:31;;;;;;;9.10;6.68;;;;;;;15.74;96.98;95043.72;5016076;28;20152;-79
2023/06/20 03:29:59;;;;;;;11.93;7.35;;;;;;;15.87;97.17;95039.97;5016079;28;20266;-80
2023/06/20 03:32:25;;;;;;;9.13;6.65;;;;;;;15.98;96.96;95038.31;5015151;28;20268;-80
2023/06/20 03:34:51;;;;;;;9.00;6.68;;;;;;;16.18;96.52;95049.25;5014939;28;20266;-81
2023/06/20 03:37:17;;;;;;;9.77;6.93;;;;;;;16.31;95.10;95037.50;5014860;28;20664;-81
2023/06/20 03:39:42;;;;;;;15.20;6.35;;;;;;;16.48;94.51;95040.97;5014769;28;20741;-81
2023/06/20 03:42:08;;;;;;;10.73;6.95;;;;;;;16.65;94.23;95051.63;5014693;28;20665;-81
2023/06/20 03:44:33;;;;;;;10.25;6.97;;;;;;;16.72;93.72;95041.63;5012847;28;20259;-81
2023/06/20 03:46:58;;;;;;;12.10;7.32;;;;;;;16.93;93.49;95040.88;5013324;28;20263;-81
2023/06/20 03:49:24;;;;;;;15.75;7.85;;;;;;;17.12;92.31;95046.72;5013630;28;20650;-81
2023/06/20 03:51:49;;;;;;;13.98;7.30;;;;;;;17.28;92.13;95046.66;5013347;28;20243;-81
2023/06/20 03:54:14;;;;;;;12.73;7.00;;;;;;;17.42;91.67;95047.06;5014693;28;20187;-80
2023/06/20 03:56:40;;;;;;;10.10;6.55;;;;;;;17.45;90.74;95016.50;5014793;28;20184;-81
2023/06/20 03:59:05;;;;;;;12.27;7.78;;;;;;;17.78;90.39;95048.31;5015342;28;20188;-81
2023/06/20 04:01:30;;;;;;;11.52;8.13;;;;;;;17.70;88.82;95008.81;5015852;28;20587;-81
2023/06/20 04:03:56;;;;;;;19.50;8.35;;;;;;;18.11;88.37;95049.94;5015468;28;20184;-81
2023/06/20 04:06:30;;;;;;;15.77;9.48;;;;;;;18.25;88.73;95053.81;5015163;28;21062;-81
2023/06/20 04:08:57;;;;;;;15.13;8.40;;;;;;;18.39;87.96;95062.19;5015103;28;20160;-80
2023/06/20 04:11:22;;;;;;;10.95;6.80;;;;;;;18.45;85.81;95061.97;5015239;28;20649;-80
2023/06/20 04:13:48;;;;;;;8.85;6.28;;;;;;;18.57;83.78;95061.84;5015238;28;20164;-81
2023/06/20 04:16:13;;;;;;;19.90;6.75;;;;;;;18.75;84.68;95063.31;5014285;28;20653;-80
2023/06/20 04:18:39;;;;;;;13.48;5.85;;;;;;;18.88;84.30;95057.50;5014008;28;20196;-81
2023/06/20 04:21:04;;;;;;;15.25;6.45;;;;;;;18.92;82.60;95042.63;5014032;28;20177;-82
2023/06/20 04:23:30;;;;;;;10.85;5.35;;;;;;;19.15;81.25;95057.41;5014005;28;21071;-81
2023/06/20 04:25:55;;;;;;;9.70;5.20;;;;;;;19.40;80.64;95072.75;5014032;28;20252;-83
2023/06/20 04:28:20;;;;;;;12.85;5.25;;;;;;;19.56;80.36;95077.13;5014445;28;20200;-80
2023/06/20 04:30:46;;;;;;;8.05;5.38;;;;;;;19.63;80.10;95058.19;5014689;28;20180;-82
2023/06/20 04:33:11;;;;;;;12.05;5.65;;;;;;;19.78;79.68;95067.06;5013970;28;20200;-83
2023/06/20 04:35:36;;;;;;;8.95;6.30;;;;;;;20.00;77.80;95076.72;5013062;28;20204;-84
2023/06/20 04:38:03;;;;;;;9.18;5.32;;;;;;;20.08;75.77;95079.69;5013779;28;20650;-83
2023/06/20 04:40:29;;;;;;;6.43;4.88;;;;;;;20.21;77.02;95073.03;5012754;28;20172;-82
2023/06/20 04:42:54;;;;;;;9.70;5.78;;;;;;;20.45;77.44;95076.81;5013800;28;20176;-83
2023/06/20 04:45:25;;;;;;;8.77;5.25;;;;;;;20.35;76.91;95050.06;5014274;28;20168;-83
2023/06/20 04:47:51;;;;;;;9.48;5.47;;;;;;;20.81;75.33;95091.00;5013523;28;20251;-83
2023/06/20 04:50:16;;;;;;;8.13;6.15;;;;;;;20.87;74.20;95081.91;5014730;28;20161;-83
2023/06/20 04:52:42;;;;;;;11.77;5.60;;;;;;;21.01;74.35;95066.09;5014252;28;20216;-82
2023/06/20 04:55:08;;;;;;;7.78;5.65;;;;;;;21.39;73.67;95086.91;5014749;28;20169;-84
2023/06/20 04:57:34;;;;;;;8.35;5.78;;;;;;;21.71;72.13;95099.13;5014648;28;20257;-83
2023/06/20 04:59:59;;;;;;;11.90;6.38;;;;;;;22.01;71.86;95103.56;5014756;28;20193;-82
2023/06/20 05:02:25;;;;;;;12.10;5.82;;;;;;;22.18;69.91;95099.47;5013577;28;20187;-84
2023/06/20 05:04:51;;;;;;;7.88;5.03;;;;;;;22.62;68.95;95111.25;5012112;28;20612;-84
2023/06/20 05:07:17;;;;;;;9.68;5.25;;;;;;;22.76;68.50;95096.94;5012135;28;20279;-82
2023/06/20 05:09:43;;;;;;;12.60;5.53;;;;;;;23.08;67.29;95119.78;5013405;28;20169;-82
2023/06/20 05:12:09;;;;;;;8.73;6.35;;;;;;;23.27;65.79;95112.59;5013330;28;20183;-83
2023/06/20 05:14:34;;;;;;;7.93;5.97;;;;;;;23.37;64.66;95082.13;5013350;28;20669;-85
2023/06/20 05:17:00;;;;;;;13.65;5.55;;;;;;;23.73;64.05;95094.13;5013721;28;20663;-83
2023/06/20 05:19:25;;;;;;;12.48;6.35;;;;;;;23.66;61.92;95034.53;5013723;28;20689;-83
2023/06/20 05:21:51;;;;;;;14.05;6.22;;;;;;;24.13;61.69;95059.72;5013613;28;20211;-81
2023/06/20 05:24:16;;;;;;;15.70;6.60;;;;;;;24.61;61.66;95100.75;5013100;28;20206;-81
2023/06/20 05:26:41;;;;;;;10.18;5.60;;;;;;;24.77;60.73;95078.69;5012943;28;20177;-82
2023/06/20 05:29:07;;;;;;;13.63;6.55;;;;;;;25.06;61.57;95075.81;5013008;28;20165;-82
2023/06/20 05:31:32;;;;;;;10.15;6.90;;;;;;;25.53;59.07;95082.72;5012703;28;20184;-82
2023/06/20 05:33:58;;;;;;;14.43;6.30;;;;;;;25.72;56.48;95066.50;5012900;28;20177;-82
2023/06/20 05:36:24;;;;;;;10.15;6.93;;;;;;;25.89;56.89;95068.56;5013943;28;20172;-82
2023/06/20 05:38:49;;;;;;;9.57;6.53;;;;;;;26.08;56.02;95054.94;5013771;28;20196;-81
2023/06/20 05:41:16;;;;;;;11.82;6.88;;;;;;;26.38;55.43;95083.97;5012917;28;20696;-81
2023/06/20 05:43:41;;;;;;;10.10;7.35;;;;;;;26.50;55.36;95078.88;5012980;28;20226;-80
2023/06/20 05:46:06;;;;;;;14.23;7.57;;;;;;;26.75;54.65;95072.06;5012645;28;20184;-81
2023/06/20 05:48:33;;;;;;;17.27;7.80;;;;;;;26.96;54.21;95061.59;5012672;28;20701;-81
2023/06/20 05:51:00;;;;;;;15.25;7.40;;;;;;;27.10;54.81;95072.31;5012507;28;20179;-81
2023/06/20 05:53:26;;;;;;;16.25;6.57;;;;;;;27.26;53.29;95059.97;5011884;28;20265;-81
2023/06/20 05:55:51;;;;;;;13.23;7.30;;;;;;;27.55;53.18;95070.34;5012143;28;20176;-81
2023/06/20 05:58:18;;;;;;;9.63;6.95;;;;;;;27.44;54.62;95075.19;5011982;28;20681;-82
2023/06/20 06:00:44;;;;;;;13.52;7.70;;;;;;;27.17;53.07;95081.56;5012491;28;20183;-80
2023/06/20 06:03:10;;;;;;;13.93;7.13;;;;;;;27.21;53.88;95082.56;5012149;28;20180;-81
2023/06/20 06:05:35;;;;;;;15.25;7.85;;;;;;;27.22;54.16;95088.75;5013277;28;20167;-80
2023/06/20 06:08:00;;;;;;;12.77;7.18;;;;;;;26.49;54.38;95066.47;5012880;28;20172;-80
2023/06/20 06:10:26;;;;;;;11.43;7.15;;;;;;;26.49;57.29;95088.06;5012247;28;20165;-79
2023/06/20 06:12:51;;;;;;;13.48;6.07;;;;;;;27.02;56.49;95101.69;5010778;28;20560;-81
2023/06/20 06:15:17;;;;;;;12.45;6.70;;;;;;;27.31;54.42;95090.41;5012429;28;20622;-80
2023/06/20 06:17:43;;;;;;;11.23;7.47;;;;;;;27.49;56.88;95088.59;5012155;28;20673;-80
2023/06/20 06:20:12;;;;;;;11.27;5.72;;;;;;;27.67;52.66;95111.94;5011966;28;20212;-81
2023/06/20 06:22:38;;;;;;;12.75;6.13;;;;;;;27.57;54.17;95095.16;5011169;28;20330;-80
2023/06/20 06:25:06;;;;;;;13.10;6.22;;;;;;;27.39;53.00;95065.31;5012196;28;20650;-80
2023/06/20 06:27:34;;;;;;;11.07;5.88;;;;;;;27.42;54.59;95091.72;5010963;28;20168;-80
2023/06/20 06:30:01;;;;;;;11.98;6.22;;;;;;;27.45;52.84;95108.44;5012195;28;20173;-80
2023/06/20 06:32:27;;;;;;;9.90;6.72;;;;;;;26.88;53.20;95073.91;5012034;28;20187;-80
2023/06/20 06:34:53;;;;;;;10.48;5.85;;;;;;;27.25;54.82;95090.84;5011883;28;20180;-80
2023/06/20 06:37:20;;;;;;;13.60;7.20;;;;;;;27.12;53.51;95065.50;5012197;28;20184;-79
2023/06/20 06:39:46;;;;;;;11.25;6.03;;;;;;;27.39;55.51;95091.56;5011804;28;20200;-79
2023/06/20 06:42:11;;;;;;;15.88;7.00;;;;;;;27.39;52.57;95084.25;5011946;28;20173;-80
2023/06/20 06:44:37;;;;;;;13.80;6.43;;;;;;;27.36;53.31;95079.44;5012241;28;20630;-80
2023/06/20 06:47:03;;;;;;;18.88;7.85;;;;;;;27.32;53.09;95064.97;5012170;28;20176;-80
2023/06/20 06:49:30;;;;;;;12.13;6.32;;;;;;;27.51;52.71;95091.75;5010495;28;20184;-80
2023/06/20 06:51:56;;;;;;;10.60;5.95;;;;;;;27.59;52.79;95085.63;5011642;28;20608;-81
2023/06/20 06:54:22;;;;;;;30.42;6.47;;;;;;;27.34;54.29;95084.38;5011877;28;20187;-81
2023/06/20 06:56:47;;;;;;;10.20;6.45;;;;;;;27.37;53.55;95078.34;5011717;28;20263;-81
2023/06/20 06:59:12;;;;;;;17.45;7.50;;;;;;;27.46;53.03;95083.78;5011339;28;20286;-81
2023/06/20 07:01:38;;;;;;;9.20;6.63;;;;;;;27.63;53.77;95073.06;5011568;28;20187;-81
2023/06/20 07:04:03;;;;;;;13.27;6.55;;;;;;;28.00;55.36;95079.06;5011365;28;20173;-80
2023/06/20 07:06:30;;;;;;;12.10;6.53;;;;;;;28.07;53.82;95072.09;5011626;28;20165;-81
2023/06/20 07:08:55;;;;;;;10.52;6.78;;;;;;;28.10;52.23;95073.38;5012001;28;20179;-81
2023/06/20 07:11:22;;;;;;;12.18;6.13;;;;;;;28.28;53.57;95072.28;5011444;28;20240;-80
2023/06/20 07:13:47;;;;;;;20.42;7.10;;;;;;;28.50;52.70;95068.66;5011460;28;20717;-82
2023/06/20 07:16:13;;;;;;;14.73;6.65;;;;;;;28.66;51.38;95050.78;5011228;28;20255;-81
2023/06/20 07:18:38;;;;;;;8.02;5.65;;;;;;;29.09;51.59;95061.59;5012043;28;20196;-80
2023/06/20 07:21:03;;;;;;;6.88;5.38;;;;;;;29.36;51.91;95044.16;5012160;28;20169;-81
2023/06/20 07:23:29;;;;;;;9.95;5.13;;;;;;;29.70;48.83;95059.50;5011828;28;20578;-81
2023/06/20 07:25:54;;;;;;;8.50;5.18;;;;;;;29.66;47.50;95066.72;5010773;28;20180;-81
2023/06/20 07:28:20;;;;;;;9.73;5.43;;;;;;;29.64;50.21;95050.75;5011246;28;20173;-81
2023/06/20 07:30:45;;;;;;;9.27;5.35;;;;;;;29.81;48.87;95062.66;5011390;28;20164;-81
2023/06/20 07:33:10;;;;;;;7.90;5.22;;;;;;;29.71;48.20;95074.66;5011148;28;20185;-82
2023/06/20 07:35:36;;;;;;;14.30;4.82;;;;;;;29.85;50.60;95069.00;5011238;28;20169;-82
2023/06/20 07:38:01;;;;;;;7.32;5.20;;;;;;;30.11;52.05;95064.25;5011795;28;20711;-82
2023/06/20 07:40:27;;;;;;;12.02;5.88;;;;;;;30.19;48.49;95049.81;5011946;28;20164;-81
2023/06/20 07:42:52;;;;;;;6.28;4.60;;;;;;;30.21;49.28;95042.13;5011465;28;20715;-83
2023/06/20 07:45:18;;;;;;;5.80;4.35;;;;;;;30.25;47.05;95064.81;5011156;28;20172;-82
2023/06/20 07:47:43;;;;;;;8.93;4.85;;;;;;;30.17;48.08;95052.09;5011338;28;20554;-83
2023/06/20 07:50:09;;;;;;;5.20;3.92;;;;;;;29.79;49.26;95016.03;5011843;28;20180;-90
2023/06/20 07:52:34;;;;;;;7.63;4.28;;;;;;;29.58;48.68;95018.66;5026932;28;20216;-86
2023/06/20 07:55:04;;;;;;;9.63;4.68;;;;;;;29.59;49.23;95072.63;5011965;28;20681;-90
2023/06/20 07:57:29;;;;;;;8.85;4.55;;;;;;;29.61;50.97;95069.59;5011840;28;20172;-80
2023/06/20 07:59:55;;;;;;;6.95;4.28;;;;;;;29.43;48.82;95044.44;5011674;28;20251;-83
2023/06/20 08:02:21;;;;;;;8.35;4.65;;;;;;;29.82;49.18;95075.91;5011063;28;20183;-80
2023/06/20 08:04:47;;;;;;;4.05;3.40;;;;;;;30.11;44.45;95069.69;5010774;28;20212;-81
2023/06/20 08:07:13;;;;;;;5.07;3.80;;;;;;;29.92;43.92;95055.72;5010821;28;20168;-83
2023/06/20 08:09:38;;;;;;;5.60;3.63;;;;;;;30.01;47.43;95061.94;5011901;28;20187;-84
2023/06/20 08:12:04;;;;;;;7.40;3.88;;;;;;;29.83;47.09;95050.34;5015135;28;20160;-84
2023/06/20 08:14:30;;;;;;;8.13;4.00;;;;;;;29.93;43.39;95057.28;5013978;28;20196;-83
2023/06/20 08:16:55;;;;;;;4.53;4.00;;;;;;;30.13;41.30;95072.06;5015121;28;20235;-83
2023/06/20 08:19:21;;;;;;;7.43;4.30;;;;;;;30.15;44.41;95076.06;5030226;28;20603;-83
2023/06/20 08:21:46;;;;;;;6.53;3.88;;;;;;;30.24;47.38;95076.81;5013775;28;20231;-84
2023/06/20 08:24:11;;;;;;;5.35;4.55;;;;;;;29.92;45.18;95021.22;5030146;28;20729;-83
2023/06/20 08:26:37;;;;;;;7.35;4.40;;;;;;;30.25;47.27;95072.16;5013859;28;20184;-83
2023/06/20 08:29:02;;;;;;;8.02;4.32;;;;;;;30.00;43.68;95076.63;5010966;28;20179;-82
2023/06/20 08:31:36;;;;;;;7.22;4.47;;;;;;;29.19;45.23;95074.03;5010365;28;20172;-81
2023/06/20 08:34:03;;;;;;;5.00;4.25;;;;;;;28.71;45.59;95042.50;5010605;28;20169;-82
2023/06/20 08:36:29;;;;;;;7.18;4.93;;;;;;;28.37;48.06;95070.38;5008952;28;20188;-82
2023/06/20 08:38:55;;;;;;;5.43;4.60;;;;;;;27.77;48.87;95075.66;5009881;28;20193;-81
2023/06/20 08:41:27;;;;;;;6.10;4.38;;;;;;;27.62;52.93;95067.97;5010020;28;20394;-81
2023/06/20 08:43:52;;;;;;;5.68;4.55;;;;;;;27.52;54.91;95030.34;5010190;28;20579;-82
2023/06/20 08:46:18;;;;;;;9.88;4.55;;;;;;;27.81;50.79;95038.75;5010896;28;20180;-81
2023/06/20 08:48:46;;;;;;;7.68;4.72;;;;;;;27.73;51.62;95045.72;5010484;28;20207;-81
2023/06/20 08:51:15;;;;;;;8.13;4.60;;;;;;;27.87;51.31;95075.38;5009391;28;20176;-81
2023/06/20 08:53:45;;;;;;;5.47;3.90;;;;;;;27.68;53.94;95026.91;5010622;28;20671;-81
2023/06/20 08:56:10;;;;;;;4.97;4.22;;;;;;;28.38;55.43;95073.88;5011541;28;20177;-80
2023/06/20 08:58:36;;;;;;;5.28;4.63;;;;;;;28.75;52.78;95077.88;5010692;28;20715;-81
2023/06/20 09:01:01;;;;;;;6.25;4.95;;;;;;;29.13;47.99;95086.16;5010997;28;20664;-81
2023/06/20 09:03:27;;;;;;;5.80;5.00;;;;;;;28.95;47.10;95031.19;5011169;28;20172;-81
2023/06/20 09:05:52;;;;;;;6.70;4.55;;;;;;;29.15;48.28;95073.06;5011075;28;20168;-81
2023/06/20 09:08:17;;;;;;;10.15;4.80;;;;;;;29.07;49.15;95071.16;5011060;28;20246;-81
2023/06/20 09:10:44;;;;;;;6.82;4.38;;;;;;;29.12;50.90;95073.72;5011268;28;20918;-81
2023/06/20 09:13:11;;;;;;;17.45;4.90;;;;;;;29.19;51.31;95074.03;5010894;28;20271;-81
2023/06/20 09:15:38;;;;;;;8.88;4.10;;;;;;;29.33;52.92;95063.75;5011191;28;20222;-81
2023/06/20 09:18:03;;;;;;;7.40;4.60;;;;;;;29.36;50.28;95057.72;5010806;28;20678;-81
2023/06/20 09:20:31;;;;;;;5.55;4.40;;;;;;;29.45;50.04;95074.78;5011117;28;20173;-81
2023/06/20 09:22:57;;;;;;;7.32;4.95;;;;;;;29.49;49.65;95062.13;5011173;28;20180;-80
2023/06/20 09:25:25;;;;;;;10.07;4.63;;;;;;;29.64;51.16;95064.31;5011408;28;20664;-81
2023/06/20 09:27:51;;;;;;;6.75;4.53;;;;;;;29.51;48.16;95064.53;5010842;28;20314;-80
2023/06/20 09:30:17;;;;;;;6.05;4.70;;;;;;;29.56;49.82;95069.78;5010932;28;20257;-82
2023/06/20 09:32:43;;;;;;;6.32;3.85;;;;;;;29.48;49.45;95065.19;5010694;28;20266;-81
2023/06/20 09:35:10;;;;;;;8.45;4.40;;;;;;;29.19;48.09;95063.16;5010625;28;20172;-80
2023/06/20 09:37:36;;;;;;;5.72;4.53;;;;;;;28.78;47.18;95064.53;5010850;28;20673;-79
2023/06/20 09:40:12;;;;;;;6.85;5.10;;;;;;;28.12;49.94;95052.16;5012766;28;20200;-79
2023/06/20 09:42:39;;;;;;;4.47;4.07;;;;;;;27.96;54.40;95054.53;5012177;28;20187;-81
2023/06/20 09:45:06;;;;;;;6.40;3.95;;;;;;;27.75;52.07;95029.97;5012001;28;20172;-80
2023/06/20 09:47:34;;;;;;;18.23;5.20;;;;;;;27.58;52.81;95039.97;5011350;28;20676;-80
2023/06/20 09:50:05;;;;;;;5.88;4.22;;;;;;;27.31;49.32;94990.34;5009527;28;20176;-81
2023/06/20 09:52:45;;;;;;;6.50;4.57;;;;;;;27.66;47.93;95033.78;5011517;28;20216;-80
2023/06/20 09:55:15;;;;;;;9.57;5.00;;;;;;;27.72;49.22;95014.38;5011363;28;20183;-81
2023/06/20 09:57:42;;;;;;;10.50;4.70;;;;;;;28.00;52.90;95047.38;5013637;28;20263;-83
2023/06/20 10:00:14;;;;;;;6.03;4.63;;;;;;;27.83;50.85;95025.69;5012101;28;20205;-82
2023/06/20 10:02:46;;;;;;;7.72;4.25;;;;;;;27.68;51.58;95009.88;5011561;28;20196;-82
2023/06/20 10:05:13;;;;;;;4.90;4.45;;;;;;;27.99;53.29;95050.41;5009034;28;20169;-83
2023/06/20 10:07:39;;;;;;;6.05;4.50;;;;;;;28.04;50.75;95047.53;5011934;28;20165;-83
2023/06/20 10:10:05;;;;;;;6.63;4.97;;;;;;;27.92;49.98;95009.47;5010121;28;20180;-83
2023/06/20 10:12:32;;;;;;;7.35;4.60;;;;;;;27.95;50.44;95003.41;5009646;28;20238;-82
2023/06/20 10:14:59;;;;;;;7.57;4.40;;;;;;;28.11;53.45;95037.03;5011266;28;20164;-82
2023/06/20 10:17:34;;;;;;;7.47;4.70;;;;;;;28.10;50.88;95043.59;5011709;28;20176;-83
2023/06/20 10:19:59;;;;;;;4.55;4.03;;;;;;;28.01;51.27;95030.03;5011129;28;20200;-84
2023/06/20 10:22:36;;;;;;;5.53;4.50;;;;;;;28.16;51.43;95036.94;5012452;28;20638;-84
2023/06/20 10:25:15;;;;;;;7.00;4.60;;;;;;;28.21;52.57;95035.97;5009529;28;20183;-82
2023/06/20 10:27:42;;;;;;;7.78;4.65;;;;;;;28.37;52.55;95048.72;5012182;28;20211;-80
2023/06/20 10:30:11;;;;;;;6.78;4.20;;;;;;;28.53;50.08;95049.06;5011505;28;20157;-80
2023/06/20 10:33:09;;;;;;;7.00;4.38;;;;;;;28.53;46.97;95038.22;5010787;28;20605;-80
2023/06/20 10:35:34;;;;;;;7.63;4.80;;;;;;;28.67;47.44;95048.88;5008040;28;20945;-79
2023/06/20 10:38:09;;;;;;;6.28;4.07;;;;;;;28.50;45.44;95053.19;5011681;28;20173;-81
2023/06/20 10:40:37;;;;;;;7.60;4.43;;;;;;;28.25;45.84;95026.91;5009894;28;20215;-78
2023/06/20 10:43:14;;;;;;;7.38;4.90;;;;;;;28.15;46.86;95046.94;5011492;28;20875;-79
2023/06/20 10:45:51;;;;;;;6.03;4.25;;;;;;;27.87;48.80;95026.66;5011524;28;20180;-80
2023/06/20 10:48:17;;;;;;;5.75;4.53;;;;;;;27.78;49.10;95033.94;5024791;28;20564;-79
2023/06/20 10:50:42;;;;;;;6.93;4.60;;;;;;;27.67;53.71;95033.47;5011776;28;20168;-78
2023/06/20 10:53:09;;;;;;;5.93;4.75;;;;;;;27.61;54.72;95021.16;5012193;28;20224;-79
2023/06/20 10:55:38;;;;;;;7.20;5.00;;;;;;;27.47;52.35;95022.38;5011951;28;20196;-79
2023/06/20 10:58:03;;;;;;;18.20;5.95;;;;;;;27.31;54.24;95003.88;5010479;28;20179;-79
2023/06/20 11:00:29;;;;;;;7.40;4.97;;;;;;;27.28;53.26;95009.91;5011596;28;20275;-79
2023/06/20 11:02:55;;;;;;;5.82;4.78;;;;;;;27.31;53.44;95013.91;5011555;28;20641;-80
2023/06/20 11:05:26;;;;;;;30.65;5.13;;;;;;;27.04;53.15;94985.94;5011150;28;20617;-79
2023/06/20 11:07:56;;;;;;;6.20;5.22;;;;;;;27.15;53.43;95008.09;5010386;28;20184;-79
2023/06/20 11:10:26;;;;;;;10.85;5.20;;;;;;;27.04;54.77;95001.38;5011354;28;20187;-78
2023/06/20 11:12:51;;;;;;;7.55;4.80;;;;;;;27.14;55.05;95005.72;5011449;28;20184;-78
2023/06/20 11:15:21;;;;;;;8.13;4.78;;;;;;;27.37;57.79;95018.84;5011470;28;20604;-78
2023/06/20 11:17:47;;;;;;;7.75;4.82;;;;;;;27.47;54.79;95003.44;5011486;28;20241;-78
2023/06/20 11:20:13;;;;;;;7.10;4.57;;;;;;;27.66;54.00;95009.44;5011425;28;20234;-78
2023/06/20 11:22:39;;;;;;;8.50;4.60;;;;;;;27.63;52.85;94991.91;5011555;28;20188;-79
2023/06/20 11:25:07;;;;;;;12.40;5.28;;;;;;;27.79;50.67;95008.47;5011510;28;20629;-79
2023/06/20 11:27:33;;;;;;;6.75;4.70;;;;;;;27.77;49.94;95008.78;5011245;28;20194;-78
2023/06/20 11:29:59;;;;;;;10.43;4.15;;;;;;;27.77;54.08;95003.38;5011488;28;20183;-79